sensor_id;sensor_type;location;lat;lon;timestamp;P1;durP1;ratioP1;P2;durP2;ratioP2
12832;SDS011;6483;51.310;4.462;2022-07-21T00:00:59;9.27;;;7.72;;
12832;SDS011;6483;51.310;4.462;2022-07-21T00:03:25;9.27;;;7.18;;
12832;SDS011;6483;51.310;4.462;2022-07-21T00:05:51;8.50;;;7.07;;
12832;SDS011;6483;51.310;4.462;2022-07-21T00:08:20;8.23;;;7.35;;
12832;SDS011;6483;51.310;4.462;2022-07-21T00:10:46;8.80;;;7.88;;
12832;SDS011;6483;51.310;4.462;2022-07-21T00:13:17;9.15;;;7.90;;
12832;SDS011;6483;51.310;4.462;2022-07-21T00:15:46;9.55;;;7.57;;
12832;SDS011;6483;51.310;4.462;2022-07-21T00:18:14;8.05;;;7.28;;
12832;SDS011;6483;51.310;4.462;2022-07-21T00:20:40;7.53;;;6.70;;
12832;SDS011;6483;51.310;4.462;2022-07-21T00:23:06;7.75;;;5.88;;
12832;SDS011;6483;51.310;4.462;2022-07-21T00:25:32;8.77;;;6.88;;
12832;SDS011;6483;51.310;4.462;2022-07-21T00:27:58;10.20;;;6.78;;
12832;SDS011;6483;51.310;4.462;2022-07-21T00:30:51;9.32;;;7.40;;
12832;SDS011;6483;51.310;4.462;2022-07-21T00:33:17;10.20;;;7.15;;
12832;SDS011;6483;51.310;4.462;2022-07-21T00:35:43;9.60;;;7.18;;
12832;SDS011;6483;51.310;4.462;2022-07-21T00:38:11;7.72;;;6.82;;
12832;SDS011;6483;51.310;4.462;2022-07-21T00:40:38;8.90;;;6.75;;
12832;SDS011;6483;51.310;4.462;2022-07-21T00:43:04;8.50;;;7.10;;
12832;SDS011;6483;51.310;4.462;2022-07-21T00:45:30;8.20;;;6.68;;
12832;SDS011;6483;51.310;4.462;2022-07-21T00:47:57;10.48;;;6.82;;
12832;SDS011;6483;51.310;4.462;2022-07-21T00:50:23;11.38;;;7.20;;
12832;SDS011;6483;51.310;4.462;2022-07-21T00:52:58;6.72;;;6.05;;
12832;SDS011;6483;51.310;4.462;2022-07-21T00:55:25;7.95;;;7.13;;
12832;SDS011;6483;51.310;4.462;2022-07-21T00:57:52;9.27;;;6.50;;
12832;SDS011;6483;51.310;4.462;2022-07-21T01:00:23;7.32;;;6.60;;
12832;SDS011;6483;51.310;4.462;2022-07-21T01:02:52;8.18;;;7.07;;
12832;SDS011;6483;51.310;4.462;2022-07-21T01:05:22;7.95;;;6.22;;
12832;SDS011;6483;51.310;4.462;2022-07-21T01:07:51;11.18;;;6.97;;
12832;SDS011;6483;51.310;4.462;2022-07-21T01:10:17;7.70;;;6.40;;
12832;SDS011;6483;51.310;4.462;2022-07-21T01:12:44;7.85;;;6.00;;
12832;SDS011;6483;51.310;4.462;2022-07-21T01:15:11;9.38;;;7.13;;
12832;SDS011;6483;51.310;4.462;2022-07-21T01:17:37;8.95;;;6.28;;
12832;SDS011;6483;51.310;4.462;2022-07-21T01:20:08;8.07;;;6.18;;
12832;SDS011;6483;51.310;4.462;2022-07-21T01:22:35;8.90;;;7.00;;
12832;SDS011;6483;51.310;4.462;2022-07-21T01:25:02;7.95;;;6.55;;
12832;SDS011;6483;51.310;4.462;2022-07-21T01:27:28;7.95;;;6.53;;
12832;SDS011;6483;51.310;4.462;2022-07-21T01:29:58;8.70;;;6.82;;
12832;SDS011;6483;51.310;4.462;2022-07-21T01:32:24;11.75;;;7.72;;
12832;SDS011;6483;51.310;4.462;2022-07-21T01:34:53;9.80;;;7.32;;
12832;SDS011;6483;51.310;4.462;2022-07-21T01:37:22;9.70;;;7.53;;
12832;SDS011;6483;51.310;4.462;2022-07-21T01:39:49;9.98;;;7.60;;
12832;SDS011;6483;51.310;4.462;2022-07-21T01:42:34;9.82;;;7.53;;
12832;SDS011;6483;51.310;4.462;2022-07-21T01:45:10;9.98;;;7.15;;
12832;SDS011;6483;51.310;4.462;2022-07-21T01:47:36;9.95;;;7.43;;
12832;SDS011;6483;51.310;4.462;2022-07-21T01:50:02;8.25;;;7.10;;
12832;SDS011;6483;51.310;4.462;2022-07-21T01:52:28;8.32;;;6.60;;
12832;SDS011;6483;51.310;4.462;2022-07-21T01:54:54;8.65;;;7.15;;
12832;SDS011;6483;51.310;4.462;2022-07-21T01:57:21;10.50;;;7.22;;
12832;SDS011;6483;51.310;4.462;2022-07-21T01:59:50;9.55;;;7.13;;
12832;SDS011;6483;51.310;4.462;2022-07-21T02:02:16;7.22;;;6.53;;
12832;SDS011;6483;51.310;4.462;2022-07-21T02:04:46;9.70;;;7.63;;
12832;SDS011;6483;51.310;4.462;2022-07-21T02:07:12;8.93;;;7.70;;
12832;SDS011;6483;51.310;4.462;2022-07-21T02:09:38;9.38;;;7.78;;
12832;SDS011;6483;51.310;4.462;2022-07-21T02:12:06;9.02;;;7.38;;
12832;SDS011;6483;51.310;4.462;2022-07-21T02:14:33;9.70;;;7.32;;
12832;SDS011;6483;51.310;4.462;2022-07-21T02:16:59;13.82;;;7.45;;
12832;SDS011;6483;51.310;4.462;2022-07-21T02:19:28;11.88;;;7.45;;
12832;SDS011;6483;51.310;4.462;2022-07-21T02:21:54;11.10;;;7.45;;
12832;SDS011;6483;51.310;4.462;2022-07-21T02:24:20;11.32;;;6.60;;
12832;SDS011;6483;51.310;4.462;2022-07-21T02:26:46;8.70;;;7.25;;
12832;SDS011;6483;51.310;4.462;2022-07-21T02:29:18;11.00;;;7.00;;
12832;SDS011;6483;51.310;4.462;2022-07-21T02:31:50;9.50;;;7.38;;
12832;SDS011;6483;51.310;4.462;2022-07-21T02:34:16;11.40;;;7.18;;
12832;SDS011;6483;51.310;4.462;2022-07-21T02:36:42;11.60;;;7.70;;
12832;SDS011;6483;51.310;4.462;2022-07-21T02:39:11;8.38;;;6.63;;
12832;SDS011;6483;51.310;4.462;2022-07-21T02:41:37;10.75;;;6.70;;
12832;SDS011;6483;51.310;4.462;2022-07-21T02:44:03;9.75;;;6.45;;
12832;SDS011;6483;51.310;4.462;2022-07-21T02:46:29;12.93;;;6.95;;
12832;SDS011;6483;51.310;4.462;2022-07-21T02:48:55;13.38;;;6.47;;
12832;SDS011;6483;51.310;4.462;2022-07-21T02:51:21;8.85;;;5.85;;
12832;SDS011;6483;51.310;4.462;2022-07-21T02:53:48;7.82;;;5.95;;
12832;SDS011;6483;51.310;4.462;2022-07-21T02:56:15;7.65;;;5.95;;
12832;SDS011;6483;51.310;4.462;2022-07-21T02:58:44;13.73;;;6.70;;
12832;SDS011;6483;51.310;4.462;2022-07-21T03:01:10;10.23;;;6.40;;
12832;SDS011;6483;51.310;4.462;2022-07-21T03:03:47;8.77;;;6.03;;
12832;SDS011;6483;51.310;4.462;2022-07-21T03:06:13;12.52;;;7.13;;
12832;SDS011;6483;51.310;4.462;2022-07-21T03:08:41;10.93;;;6.65;;
12832;SDS011;6483;51.310;4.462;2022-07-21T03:11:08;11.32;;;6.45;;
12832;SDS011;6483;51.310;4.462;2022-07-21T03:13:34;11.70;;;6.22;;
12832;SDS011;6483;51.310;4.462;2022-07-21T03:16:00;9.57;;;6.28;;
12832;SDS011;6483;51.310;4.462;2022-07-21T03:18:28;9.05;;;5.70;;
12832;SDS011;6483;51.310;4.462;2022-07-21T03:20:56;14.18;;;6.20;;
12832;SDS011;6483;51.310;4.462;2022-07-21T03:23:22;9.77;;;5.93;;
12832;SDS011;6483;51.310;4.462;2022-07-21T03:25:52;14.18;;;6.95;;
12832;SDS011;6483;51.310;4.462;2022-07-21T03:28:18;11.40;;;6.80;;
12832;SDS011;6483;51.310;4.462;2022-07-21T03:30:44;9.27;;;6.65;;
12832;SDS011;6483;51.310;4.462;2022-07-21T03:33:10;12.65;;;6.63;;
12832;SDS011;6483;51.310;4.462;2022-07-21T03:35:39;10.20;;;6.50;;
12832;SDS011;6483;51.310;4.462;2022-07-21T03:38:07;9.20;;;6.13;;
12832;SDS011;6483;51.310;4.462;2022-07-21T03:40:34;14.07;;;6.28;;
12832;SDS011;6483;51.310;4.462;2022-07-21T03:43:01;8.95;;;6.65;;
12832;SDS011;6483;51.310;4.462;2022-07-21T03:45:28;10.35;;;6.50;;
12832;SDS011;6483;51.310;4.462;2022-07-21T03:47:55;12.38;;;6.75;;
12832;SDS011;6483;51.310;4.462;2022-07-21T03:50:25;7.80;;;6.28;;
12832;SDS011;6483;51.310;4.462;2022-07-21T03:52:54;14.48;;;7.22;;
12832;SDS011;6483;51.310;4.462;2022-07-21T03:55:23;10.73;;;6.70;;
12832;SDS011;6483;51.310;4.462;2022-07-21T03:57:50;8.13;;;6.82;;
12832;SDS011;6483;51.310;4.462;2022-07-21T04:00:21;13.68;;;7.10;;
12832;SDS011;6483;51.310;4.462;2022-07-21T04:02:50;10.07;;;7.43;;
12832;SDS011;6483;51.310;4.462;2022-07-21T04:05:17;10.70;;;6.80;;
12832;SDS011;6483;51.310;4.462;2022-07-21T04:07:43;8.77;;;6.75;;
12832;SDS011;6483;51.310;4.462;2022-07-21T04:10:10;9.02;;;6.50;;
12832;SDS011;6483;51.310;4.462;2022-07-21T04:12:37;10.18;;;7.15;;
12832;SDS011;6483;51.310;4.462;2022-07-21T04:15:07;11.30;;;8.20;;
12832;SDS011;6483;51.310;4.462;2022-07-21T04:17:34;14.20;;;7.95;;
12832;SDS011;6483;51.310;4.462;2022-07-21T04:20:00;10.85;;;8.35;;
12832;SDS011;6483;51.310;4.462;2022-07-21T04:22:29;13.27;;;8.48;;
12832;SDS011;6483;51.310;4.462;2022-07-21T04:24:58;16.85;;;9.82;;
12832;SDS011;6483;51.310;4.462;2022-07-21T04:27:25;13.88;;;8.93;;
12832;SDS011;6483;51.310;4.462;2022-07-21T04:29:51;18.02;;;9.68;;
12832;SDS011;6483;51.310;4.462;2022-07-21T04:32:19;14.52;;;9.77;;
12832;SDS011;6483;51.310;4.462;2022-07-21T04:34:47;13.48;;;10.10;;
12832;SDS011;6483;51.310;4.462;2022-07-21T04:37:13;16.73;;;9.95;;
12832;SDS011;6483;51.310;4.462;2022-07-21T04:39:39;15.18;;;9.27;;
12832;SDS011;6483;51.310;4.462;2022-07-21T04:42:05;16.17;;;10.85;;
12832;SDS011;6483;51.310;4.462;2022-07-21T04:44:33;18.00;;;11.88;;
12832;SDS011;6483;51.310;4.462;2022-07-21T04:47:02;19.23;;;11.38;;
12832;SDS011;6483;51.310;4.462;2022-07-21T04:49:28;18.27;;;11.73;;
12832;SDS011;6483;51.310;4.462;2022-07-21T04:51:55;22.73;;;12.07;;
12832;SDS011;6483;51.310;4.462;2022-07-21T04:54:21;19.92;;;11.80;;
12832;SDS011;6483;51.310;4.462;2022-07-21T04:56:50;17.40;;;11.82;;
12832;SDS011;6483;51.310;4.462;2022-07-21T04:59:16;19.75;;;11.13;;
12832;SDS011;6483;51.310;4.462;2022-07-21T05:01:42;16.60;;;11.55;;
12832;SDS011;6483;51.310;4.462;2022-07-21T05:04:08;21.00;;;12.10;;
12832;SDS011;6483;51.310;4.462;2022-07-21T05:06:37;16.83;;;11.18;;
12832;SDS011;6483;51.310;4.462;2022-07-21T05:09:03;16.70;;;12.10;;
12832;SDS011;6483;51.310;4.462;2022-07-21T05:11:33;17.10;;;11.85;;
12832;SDS011;6483;51.310;4.462;2022-07-21T05:14:01;15.52;;;11.82;;
12832;SDS011;6483;51.310;4.462;2022-07-21T05:16:28;16.30;;;11.82;;
12832;SDS011;6483;51.310;4.462;2022-07-21T05:18:54;20.05;;;12.95;;
12832;SDS011;6483;51.310;4.462;2022-07-21T05:21:20;18.33;;;12.30;;
12832;SDS011;6483;51.310;4.462;2022-07-21T05:23:46;22.10;;;13.73;;
12832;SDS011;6483;51.310;4.462;2022-07-21T05:26:12;21.33;;;15.10;;
12832;SDS011;6483;51.310;4.462;2022-07-21T05:28:39;24.17;;;16.35;;
12832;SDS011;6483;51.310;4.462;2022-07-21T05:31:12;22.35;;;15.35;;
12832;SDS011;6483;51.310;4.462;2022-07-21T05:33:38;28.73;;;18.25;;
12832;SDS011;6483;51.310;4.462;2022-07-21T05:36:04;22.83;;;16.05;;
12832;SDS011;6483;51.310;4.462;2022-07-21T05:38:30;23.42;;;17.52;;
12832;SDS011;6483;51.310;4.462;2022-07-21T05:41:00;24.35;;;17.45;;
12832;SDS011;6483;51.310;4.462;2022-07-21T05:43:28;25.20;;;18.08;;
12832;SDS011;6483;51.310;4.462;2022-07-21T05:45:54;27.50;;;18.60;;
12832;SDS011;6483;51.310;4.462;2022-07-21T05:48:20;26.90;;;19.02;;
12832;SDS011;6483;51.310;4.462;2022-07-21T05:50:54;32.47;;;19.98;;
12832;SDS011;6483;51.310;4.462;2022-07-21T05:53:20;27.40;;;19.48;;
12832;SDS011;6483;51.310;4.462;2022-07-21T05:55:47;29.35;;;20.73;;
12832;SDS011;6483;51.310;4.462;2022-07-21T05:58:13;30.13;;;19.45;;
12832;SDS011;6483;51.310;4.462;2022-07-21T06:00:40;32.72;;;21.08;;
12832;SDS011;6483;51.310;4.462;2022-07-21T06:03:06;28.58;;;20.92;;
12832;SDS011;6483;51.310;4.462;2022-07-21T06:05:32;29.67;;;21.45;;
12832;SDS011;6483;51.310;4.462;2022-07-21T06:08:00;29.88;;;21.30;;
12832;SDS011;6483;51.310;4.462;2022-07-21T06:10:26;26.73;;;20.73;;
12832;SDS011;6483;51.310;4.462;2022-07-21T06:12:53;27.52;;;21.02;;
12832;SDS011;6483;51.310;4.462;2022-07-21T06:15:22;29.33;;;20.67;;
12832;SDS011;6483;51.310;4.462;2022-07-21T06:17:50;28.70;;;21.40;;
12832;SDS011;6483;51.310;4.462;2022-07-21T06:20:16;29.73;;;21.17;;
12832;SDS011;6483;51.310;4.462;2022-07-21T06:22:43;29.42;;;22.10;;
12832;SDS011;6483;51.310;4.462;2022-07-21T06:25:09;28.42;;;21.20;;
12832;SDS011;6483;51.310;4.462;2022-07-21T06:27:35;25.60;;;19.73;;
12832;SDS011;6483;51.310;4.462;2022-07-21T06:30:07;32.00;;;23.23;;
12832;SDS011;6483;51.310;4.462;2022-07-21T06:32:36;31.80;;;22.13;;
12832;SDS011;6483;51.310;4.462;2022-07-21T06:35:03;26.23;;;19.92;;
12832;SDS011;6483;51.310;4.462;2022-07-21T06:37:30;29.15;;;20.67;;
12832;SDS011;6483;51.310;4.462;2022-07-21T06:39:56;25.50;;;18.08;;
12832;SDS011;6483;51.310;4.462;2022-07-21T06:42:23;24.42;;;18.67;;
12832;SDS011;6483;51.310;4.462;2022-07-21T06:44:48;23.10;;;17.52;;
12832;SDS011;6483;51.310;4.462;2022-07-21T06:47:14;24.67;;;17.45;;
12832;SDS011;6483;51.310;4.462;2022-07-21T06:49:44;25.45;;;18.58;;
12832;SDS011;6483;51.310;4.462;2022-07-21T06:52:10;24.40;;;17.50;;
12832;SDS011;6483;51.310;4.462;2022-07-21T06:54:36;23.90;;;17.70;;
12832;SDS011;6483;51.310;4.462;2022-07-21T06:57:05;22.98;;;17.55;;
12832;SDS011;6483;51.310;4.462;2022-07-21T06:59:34;23.23;;;17.67;;
12832;SDS011;6483;51.310;4.462;2022-07-21T07:02:06;19.58;;;16.33;;
12832;SDS011;6483;51.310;4.462;2022-07-21T07:04:32;20.45;;;15.75;;
12832;SDS011;6483;51.310;4.462;2022-07-21T07:06:58;20.13;;;16.27;;
12832;SDS011;6483;51.310;4.462;2022-07-21T07:09:24;18.00;;;14.50;;
12832;SDS011;6483;51.310;4.462;2022-07-21T07:11:53;18.05;;;14.90;;
12832;SDS011;6483;51.310;4.462;2022-07-21T07:14:27;16.10;;;13.60;;
12832;SDS011;6483;51.310;4.462;2022-07-21T07:16:53;13.25;;;11.93;;
12832;SDS011;6483;51.310;4.462;2022-07-21T07:19:19;9.90;;;8.43;;
12832;SDS011;6483;51.310;4.462;2022-07-21T07:21:46;9.43;;;8.32;;
12832;SDS011;6483;51.310;4.462;2022-07-21T07:24:11;12.07;;;9.85;;
12832;SDS011;6483;51.310;4.462;2022-07-21T07:26:38;11.52;;;9.52;;
12832;SDS011;6483;51.310;4.462;2022-07-21T07:29:04;11.45;;;9.65;;
12832;SDS011;6483;51.310;4.462;2022-07-21T07:31:30;11.93;;;10.63;;
12832;SDS011;6483;51.310;4.462;2022-07-21T07:33:56;16.45;;;12.05;;
12832;SDS011;6483;51.310;4.462;2022-07-21T07:36:23;17.98;;;14.10;;
12832;SDS011;6483;51.310;4.462;2022-07-21T07:38:52;21.40;;;16.10;;
12832;SDS011;6483;51.310;4.462;2022-07-21T07:41:22;24.10;;;17.17;;
12832;SDS011;6483;51.310;4.462;2022-07-21T07:43:52;24.35;;;18.02;;
12832;SDS011;6483;51.310;4.462;2022-07-21T07:46:19;29.73;;;18.63;;
12832;SDS011;6483;51.310;4.462;2022-07-21T07:48:48;23.20;;;18.92;;
12832;SDS011;6483;51.310;4.462;2022-07-21T07:51:20;29.30;;;18.92;;
12832;SDS011;6483;51.310;4.462;2022-07-21T07:53:52;27.85;;;20.02;;
12832;SDS011;6483;51.310;4.462;2022-07-21T07:56:18;27.80;;;19.73;;
12832;SDS011;6483;51.310;4.462;2022-07-21T07:58:44;33.30;;;20.17;;
12832;SDS011;6483;51.310;4.462;2022-07-21T08:01:10;29.75;;;19.65;;
12832;SDS011;6483;51.310;4.462;2022-07-21T08:03:36;30.05;;;19.35;;
12832;SDS011;6483;51.310;4.462;2022-07-21T08:06:04;28.02;;;19.23;;
12832;SDS011;6483;51.310;4.462;2022-07-21T08:08:31;23.90;;;17.45;;
12832;SDS011;6483;51.310;4.462;2022-07-21T08:10:59;22.92;;;16.92;;
12832;SDS011;6483;51.310;4.462;2022-07-21T08:13:27;22.80;;;15.40;;
12832;SDS011;6483;51.310;4.462;2022-07-21T08:15:54;21.77;;;15.18;;
12832;SDS011;6483;51.310;4.462;2022-07-21T08:18:20;22.02;;;15.82;;
12832;SDS011;6483;51.310;4.462;2022-07-21T08:20:49;24.08;;;16.17;;
12832;SDS011;6483;51.310;4.462;2022-07-21T08:23:18;21.92;;;16.13;;
12832;SDS011;6483;51.310;4.462;2022-07-21T08:25:44;22.75;;;16.70;;
12832;SDS011;6483;51.310;4.462;2022-07-21T08:28:14;22.77;;;15.68;;
12832;SDS011;6483;51.310;4.462;2022-07-21T08:30:41;24.48;;;16.33;;
12832;SDS011;6483;51.310;4.462;2022-07-21T08:33:07;20.38;;;15.18;;
12832;SDS011;6483;51.310;4.462;2022-07-21T08:35:34;23.35;;;16.45;;
12832;SDS011;6483;51.310;4.462;2022-07-21T08:38:01;21.05;;;15.40;;
12832;SDS011;6483;51.310;4.462;2022-07-21T08:40:29;22.45;;;16.77;;
12832;SDS011;6483;51.310;4.462;2022-07-21T08:42:55;21.35;;;15.93;;
12832;SDS011;6483;51.310;4.462;2022-07-21T08:45:24;21.98;;;15.00;;
12832;SDS011;6483;51.310;4.462;2022-07-21T08:47:53;21.48;;;15.00;;
12832;SDS011;6483;51.310;4.462;2022-07-21T08:50:21;20.65;;;15.40;;
12832;SDS011;6483;51.310;4.462;2022-07-21T08:52:49;20.90;;;14.70;;
12832;SDS011;6483;51.310;4.462;2022-07-21T08:55:15;23.30;;;15.45;;
12832;SDS011;6483;51.310;4.462;2022-07-21T08:57:41;25.85;;;16.05;;
12832;SDS011;6483;51.310;4.462;2022-07-21T09:00:08;21.60;;;16.10;;
12832;SDS011;6483;51.310;4.462;2022-07-21T09:02:35;21.50;;;16.50;;
12832;SDS011;6483;51.310;4.462;2022-07-21T09:05:02;23.55;;;14.02;;
12832;SDS011;6483;51.310;4.462;2022-07-21T09:07:49;19.80;;;13.52;;
12832;SDS011;6483;51.310;4.462;2022-07-21T09:10:20;20.20;;;13.40;;
12832;SDS011;6483;51.310;4.462;2022-07-21T09:12:48;17.42;;;12.02;;
12832;SDS011;6483;51.310;4.462;2022-07-21T09:15:15;15.75;;;11.10;;
12832;SDS011;6483;51.310;4.462;2022-07-21T09:17:43;11.65;;;10.45;;
12832;SDS011;6483;51.310;4.462;2022-07-21T09:20:22;14.05;;;10.43;;
12832;SDS011;6483;51.310;4.462;2022-07-21T09:25:34;15.57;;;10.60;;
12832;SDS011;6483;51.310;4.462;2022-07-21T09:33:31;15.05;;;11.38;;
12832;SDS011;6483;51.310;4.462;2022-07-21T09:41:18;15.00;;;10.30;;
12832;SDS011;6483;51.310;4.462;2022-07-21T09:44:02;13.07;;;9.25;;
12832;SDS011;6483;51.310;4.462;2022-07-21T09:46:29;11.35;;;8.57;;
12832;SDS011;6483;51.310;4.462;2022-07-21T09:48:56;12.15;;;8.30;;
12832;SDS011;6483;51.310;4.462;2022-07-21T09:51:24;14.05;;;8.15;;
12832;SDS011;6483;51.310;4.462;2022-07-21T09:54:01;9.88;;;7.78;;
12832;SDS011;6483;51.310;4.462;2022-07-21T09:56:31;11.48;;;7.65;;
12832;SDS011;6483;51.310;4.462;2022-07-21T09:59:00;7.43;;;6.00;;
12832;SDS011;6483;51.310;4.462;2022-07-21T10:01:27;7.97;;;6.05;;
12832;SDS011;6483;51.310;4.462;2022-07-21T10:03:54;10.23;;;6.70;;
12832;SDS011;6483;51.310;4.462;2022-07-21T10:06:25;7.40;;;6.50;;
12832;SDS011;6483;51.310;4.462;2022-07-21T10:08:56;7.07;;;5.93;;
12832;SDS011;6483;51.310;4.462;2022-07-21T10:11:25;6.78;;;5.88;;
12832;SDS011;6483;51.310;4.462;2022-07-21T10:13:52;6.78;;;5.55;;
12832;SDS011;6483;51.310;4.462;2022-07-21T10:16:18;6.05;;;5.55;;
12832;SDS011;6483;51.310;4.462;2022-07-21T10:24:04;7.97;;;6.45;;
12832;SDS011;6483;51.310;4.462;2022-07-21T10:26:30;9.20;;;7.32;;
12832;SDS011;6483;51.310;4.462;2022-07-21T10:28:59;9.73;;;7.80;;
12832;SDS011;6483;51.310;4.462;2022-07-21T10:31:25;10.32;;;8.30;;
12832;SDS011;6483;51.310;4.462;2022-07-21T10:33:58;11.18;;;7.90;;
12832;SDS011;6483;51.310;4.462;2022-07-21T10:39:20;11.32;;;7.93;;
12832;SDS011;6483;51.310;4.462;2022-07-21T10:41:48;9.52;;;6.88;;
12832;SDS011;6483;51.310;4.462;2022-07-21T10:47:12;7.13;;;6.20;;
12832;SDS011;6483;51.310;4.462;2022-07-21T10:49:55;7.28;;;6.53;;
12832;SDS011;6483;51.310;4.462;2022-07-21T10:58:51;10.10;;;5.93;;
12832;SDS011;6483;51.310;4.462;2022-07-21T11:03:43;9.35;;;5.55;;
12832;SDS011;6483;51.310;4.462;2022-07-21T11:06:23;9.32;;;4.90;;
12832;SDS011;6483;51.310;4.462;2022-07-21T11:08:51;7.45;;;4.97;;
12832;SDS011;6483;51.310;4.462;2022-07-21T11:11:29;8.10;;;5.53;;
12832;SDS011;6483;51.310;4.462;2022-07-21T11:27:26;6.57;;;4.40;;
12832;SDS011;6483;51.310;4.462;2022-07-21T11:29:54;7.40;;;4.78;;
12832;SDS011;6483;51.310;4.462;2022-07-21T11:32:25;6.35;;;3.67;;
12832;SDS011;6483;51.310;4.462;2022-07-21T11:34:58;5.70;;;3.55;;
12832;SDS011;6483;51.310;4.462;2022-07-21T11:37:33;6.85;;;3.90;;
12832;SDS011;6483;51.310;4.462;2022-07-21T11:42:51;7.20;;;4.38;;
12832;SDS011;6483;51.310;4.462;2022-07-21T11:45:18;9.75;;;4.32;;
12832;SDS011;6483;51.310;4.462;2022-07-21T11:47:51;7.78;;;4.13;;
12832;SDS011;6483;51.310;4.462;2022-07-21T11:50:20;7.95;;;4.18;;
12832;SDS011;6483;51.310;4.462;2022-07-21T11:52:46;8.35;;;4.63;;
12832;SDS011;6483;51.310;4.462;2022-07-21T11:55:18;5.75;;;3.95;;
12832;SDS011;6483;51.310;4.462;2022-07-21T11:57:45;7.25;;;4.38;;
12832;SDS011;6483;51.310;4.462;2022-07-21T12:00:13;6.05;;;4.20;;
12832;SDS011;6483;51.310;4.462;2022-07-21T12:02:40;7.10;;;4.13;;
12832;SDS011;6483;51.310;4.462;2022-07-21T12:05:07;8.38;;;5.22;;
12832;SDS011;6483;51.310;4.462;2022-07-21T12:07:35;9.13;;;4.63;;
12832;SDS011;6483;51.310;4.462;2022-07-21T12:10:07;10.27;;;4.55;;
12832;SDS011;6483;51.310;4.462;2022-07-21T12:12:47;7.78;;;4.75;;
12832;SDS011;6483;51.310;4.462;2022-07-21T12:15:18;6.45;;;5.10;;
12832;SDS011;6483;51.310;4.462;2022-07-21T12:17:52;11.98;;;5.18;;
12832;SDS011;6483;51.310;4.462;2022-07-21T12:20:26;9.90;;;5.50;;
12832;SDS011;6483;51.310;4.462;2022-07-21T12:23:00;9.63;;;4.35;;
12832;SDS011;6483;51.310;4.462;2022-07-21T12:25:35;9.35;;;4.35;;
12832;SDS011;6483;51.310;4.462;2022-07-21T12:28:03;9.32;;;4.00;;
12832;SDS011;6483;51.310;4.462;2022-07-21T12:35:58;8.30;;;4.03;;
12832;SDS011;6483;51.310;4.462;2022-07-21T12:38:43;10.73;;;4.07;;
12832;SDS011;6483;51.310;4.462;2022-07-21T12:41:17;9.57;;;3.97;;
12832;SDS011;6483;51.310;4.462;2022-07-21T12:43:57;6.93;;;4.50;;
12832;SDS011;6483;51.310;4.462;2022-07-21T12:46:28;8.75;;;4.55;;
12832;SDS011;6483;51.310;4.462;2022-07-21T12:49:10;12.00;;;5.35;;
12832;SDS011;6483;51.310;4.462;2022-07-21T12:51:40;10.75;;;4.43;;
12832;SDS011;6483;51.310;4.462;2022-07-21T12:54:07;8.85;;;4.35;;
12832;SDS011;6483;51.310;4.462;2022-07-21T12:56:33;8.52;;;3.85;;
12832;SDS011;6483;51.310;4.462;2022-07-21T12:59:00;8.32;;;3.80;;
12832;SDS011;6483;51.310;4.462;2022-07-21T13:01:30;9.18;;;4.13;;
12832;SDS011;6483;51.310;4.462;2022-07-21T13:03:57;8.60;;;4.28;;
12832;SDS011;6483;51.310;4.462;2022-07-21T13:06:29;10.80;;;4.43;;
12832;SDS011;6483;51.310;4.462;2022-07-21T13:08:58;11.52;;;4.85;;
12832;SDS011;6483;51.310;4.462;2022-07-21T13:11:27;11.43;;;4.45;;
12832;SDS011;6483;51.310;4.462;2022-07-21T13:13:53;11.38;;;4.05;;
12832;SDS011;6483;51.310;4.462;2022-07-21T13:16:19;6.63;;;3.50;;
12832;SDS011;6483;51.310;4.462;2022-07-21T13:18:48;11.25;;;3.72;;
12832;SDS011;6483;51.310;4.462;2022-07-21T13:21:14;8.52;;;3.40;;
12832;SDS011;6483;51.310;4.462;2022-07-21T13:23:39;8.95;;;3.25;;
12832;SDS011;6483;51.310;4.462;2022-07-21T13:26:08;12.15;;;4.18;;
12832;SDS011;6483;51.310;4.462;2022-07-21T13:28:34;7.53;;;3.80;;
12832;SDS011;6483;51.310;4.462;2022-07-21T13:31:00;8.02;;;3.83;;
12832;SDS011;6483;51.310;4.462;2022-07-21T13:33:26;9.85;;;3.78;;
12832;SDS011;6483;51.310;4.462;2022-07-21T13:35:51;10.93;;;3.95;;
12832;SDS011;6483;51.310;4.462;2022-07-21T13:38:20;8.25;;;3.60;;
12832;SDS011;6483;51.310;4.462;2022-07-21T13:40:46;9.38;;;3.85;;
12832;SDS011;6483;51.310;4.462;2022-07-21T13:43:12;10.88;;;4.45;;
12832;SDS011;6483;51.310;4.462;2022-07-21T13:45:44;8.13;;;3.90;;
12832;SDS011;6483;51.310;4.462;2022-07-21T13:48:10;9.20;;;4.28;;
12832;SDS011;6483;51.310;4.462;2022-07-21T13:50:35;11.88;;;4.07;;
12832;SDS011;6483;51.310;4.462;2022-07-21T13:53:05;10.30;;;4.40;;
12832;SDS011;6483;51.310;4.462;2022-07-21T13:55:31;10.70;;;3.97;;
12832;SDS011;6483;51.310;4.462;2022-07-21T13:57:59;14.35;;;5.28;;
12832;SDS011;6483;51.310;4.462;2022-07-21T14:00:28;8.73;;;4.18;;
12832;SDS011;6483;51.310;4.462;2022-07-21T14:02:56;10.32;;;4.72;;
12832;SDS011;6483;51.310;4.462;2022-07-21T14:05:22;14.23;;;4.82;;
12832;SDS011;6483;51.310;4.462;2022-07-21T14:07:48;13.15;;;5.07;;
12832;SDS011;6483;51.310;4.462;2022-07-21T14:10:14;12.23;;;4.53;;
12832;SDS011;6483;51.310;4.462;2022-07-21T14:12:39;13.45;;;5.25;;
12832;SDS011;6483;51.310;4.462;2022-07-21T14:15:05;13.90;;;4.40;;
12832;SDS011;6483;51.310;4.462;2022-07-21T14:17:34;11.00;;;4.07;;
12832;SDS011;6483;51.310;4.462;2022-07-21T14:20:06;10.25;;;4.88;;
12832;SDS011;6483;51.310;4.462;2022-07-21T14:22:36;13.88;;;4.57;;
12832;SDS011;6483;51.310;4.462;2022-07-21T14:25:05;10.93;;;4.22;;
12832;SDS011;6483;51.310;4.462;2022-07-21T14:27:44;11.65;;;4.38;;
12832;SDS011;6483;51.310;4.462;2022-07-21T14:30:23;12.43;;;4.43;;
12832;SDS011;6483;51.310;4.462;2022-07-21T14:32:52;15.63;;;4.55;;
12832;SDS011;6483;51.310;4.462;2022-07-21T14:35:22;13.55;;;4.57;;
12832;SDS011;6483;51.310;4.462;2022-07-21T14:37:49;10.95;;;4.55;;
12832;SDS011;6483;51.310;4.462;2022-07-21T14:40:16;12.45;;;4.32;;
12832;SDS011;6483;51.310;4.462;2022-07-21T14:42:42;13.98;;;4.45;;
12832;SDS011;6483;51.310;4.462;2022-07-21T14:45:11;10.25;;;3.83;;
12832;SDS011;6483;51.310;4.462;2022-07-21T14:47:37;14.75;;;4.32;;
12832;SDS011;6483;51.310;4.462;2022-07-21T14:50:05;12.55;;;4.43;;
12832;SDS011;6483;51.310;4.462;2022-07-21T14:52:31;10.90;;;4.85;;
12832;SDS011;6483;51.310;4.462;2022-07-21T14:54:57;13.90;;;4.25;;
12832;SDS011;6483;51.310;4.462;2022-07-21T14:57:25;9.77;;;4.40;;
12832;SDS011;6483;51.310;4.462;2022-07-21T14:59:52;10.07;;;3.92;;
12832;SDS011;6483;51.310;4.462;2022-07-21T15:02:18;12.38;;;4.50;;
12832;SDS011;6483;51.310;4.462;2022-07-21T15:04:47;13.20;;;4.50;;
12832;SDS011;6483;51.310;4.462;2022-07-21T15:07:13;9.57;;;3.55;;
12832;SDS011;6483;51.310;4.462;2022-07-21T15:09:39;11.98;;;3.78;;
12832;SDS011;6483;51.310;4.462;2022-07-21T15:12:11;13.50;;;4.43;;
12832;SDS011;6483;51.310;4.462;2022-07-21T15:14:38;8.35;;;3.70;;
12832;SDS011;6483;51.310;4.462;2022-07-21T15:17:04;10.75;;;3.50;;
12832;SDS011;6483;51.310;4.462;2022-07-21T15:19:30;12.45;;;3.60;;
12832;SDS011;6483;51.310;4.462;2022-07-21T15:21:59;9.98;;;3.72;;
12832;SDS011;6483;51.310;4.462;2022-07-21T15:24:25;12.05;;;4.03;;
12832;SDS011;6483;51.310;4.462;2022-07-21T15:26:51;12.45;;;4.45;;
12832;SDS011;6483;51.310;4.462;2022-07-21T15:29:17;12.73;;;3.55;;
12832;SDS011;6483;51.310;4.462;2022-07-21T15:31:43;9.68;;;3.60;;
12832;SDS011;6483;51.310;4.462;2022-07-21T15:34:11;12.98;;;4.18;;
12832;SDS011;6483;51.310;4.462;2022-07-21T15:36:37;13.07;;;3.70;;
12832;SDS011;6483;51.310;4.462;2022-07-21T15:39:06;16.35;;;4.10;;
12832;SDS011;6483;51.310;4.462;2022-07-21T15:41:36;13.18;;;4.22;;
12832;SDS011;6483;51.310;4.462;2022-07-21T15:44:02;16.92;;;4.07;;
12832;SDS011;6483;51.310;4.462;2022-07-21T15:46:28;14.57;;;4.20;;
12832;SDS011;6483;51.310;4.462;2022-07-21T15:48:56;14.57;;;4.28;;